createdAt,value
2022-11-05T00:02:48.475Z,11.70
2022-11-05T00:07:09.032Z,11.30
2022-11-05T00:11:15.241Z,12.20
2022-11-05T00:15:36.105Z,11.80
2022-11-05T00:19:34.794Z,10.00
2022-11-05T00:23:51.948Z,15.10
2022-11-05T00:27:53.323Z,10.90
2022-11-05T00:31:52.755Z,11.20
2022-11-05T00:35:51.277Z,12.30
2022-11-05T00:39:50.013Z,12.70
2022-11-05T00:44:07.276Z,11.10
2022-11-05T00:48:24.971Z,10.30
2022-11-05T00:52:53.826Z,13.70
2022-11-05T00:57:04.914Z,10.50
2022-11-05T01:00:44.154Z,16.30
2022-11-05T01:04:19.443Z,14.60
2022-11-05T01:07:57.027Z,16.20
2022-11-05T01:11:40.048Z,14.20
2022-11-05T01:15:13.245Z,15.80
2022-11-05T01:18:50.222Z,18.00
2022-11-05T01:22:30.514Z,15.50
2022-11-05T01:26:03.678Z,13.10
2022-11-05T01:29:42.083Z,15.30
2022-11-05T01:33:20.413Z,14.40
2022-11-05T01:36:58.405Z,16.40
2022-11-05T01:40:36.588Z,14.80
2022-11-05T01:44:51.017Z,14.20
2022-11-05T01:48:19.564Z,15.70
2022-11-05T01:51:39.110Z,13.90
2022-11-05T01:55:18.036Z,15.20
2022-11-05T01:59:03.073Z,13.60
2022-11-05T02:02:33.297Z,12.40
2022-11-05T02:06:12.981Z,15.80
2022-11-05T02:09:53.609Z,10.50
2022-11-05T02:13:25.467Z,14.10
2022-11-05T02:17:22.638Z,14.70
2022-11-05T02:21:07.360Z,13.60
2022-11-05T02:24:47.708Z,16.90
2022-11-05T02:29:22.856Z,13.00
2022-11-05T02:32:58.245Z,13.30
2022-11-05T02:36:34.574Z,11.80
2022-11-05T02:40:00.057Z,11.70
2022-11-05T02:44:29.104Z,12.40
2022-11-05T02:47:39.961Z,15.70
2022-11-05T02:51:43.070Z,13.60
2022-11-05T02:55:05.411Z,12.20
2022-11-05T02:58:40.534Z,12.40
2022-11-05T03:02:11.147Z,12.50
2022-11-05T03:06:22.367Z,10.20
2022-11-05T03:09:43.859Z,13.30
2022-11-05T03:13:22.428Z,10.80
2022-11-05T03:17:25.280Z,12.40
2022-11-05T03:20:35.863Z,11.10
2022-11-05T03:24:30.930Z,9.60
2022-11-05T03:27:52.147Z,11.90
2022-11-05T03:31:28.733Z,14.80
2022-11-05T03:35:11.862Z,13.00
2022-11-05T03:38:47.582Z,12.00
2022-11-05T03:42:23.496Z,11.40
2022-11-05T03:46:09.295Z,11.00
2022-11-05T03:49:44.055Z,12.30
2022-11-05T03:53:33.898Z,9.30
2022-11-05T03:56:56.892Z,11.60
2022-11-05T04:00:28.791Z,11.30
2022-11-05T04:04:14.868Z,12.00
2022-11-05T04:08:03.978Z,10.90
2022-11-05T04:11:39.145Z,12.40
2022-11-05T04:14:58.679Z,13.30
2022-11-05T04:18:40.090Z,12.00
2022-11-05T04:22:32.511Z,12.20
2022-11-05T04:26:49.295Z,12.80
2022-11-05T04:30:22.124Z,11.80
2022-11-05T04:33:59.803Z,12.30
2022-11-05T04:37:36.251Z,12.10
2022-11-05T04:41:20.336Z,12.70
2022-11-05T04:44:50.656Z,10.90
2022-11-05T04:48:59.773Z,9.10
2022-11-05T04:52:37.220Z,14.70
2022-11-05T04:56:19.306Z,12.10
2022-11-05T04:59:55.565Z,13.70
2022-11-05T05:03:30.978Z,10.30
2022-11-05T05:07:06.977Z,13.20
2022-11-05T05:10:47.278Z,14.70
2022-11-05T05:14:22.289Z,13.10
2022-11-05T05:18:00.903Z,15.50
2022-11-05T05:21:44.762Z,11.90
2022-11-05T05:25:17.257Z,12.80
2022-11-05T05:28:52.810Z,15.90
2022-11-05T05:33:07.859Z,14.80
2022-11-05T05:36:39.611Z,13.20
2022-11-05T05:40:49.445Z,13.30
2022-11-05T05:44:27.004Z,15.00
2022-11-05T05:48:05.766Z,12.50
2022-11-05T05:51:41.468Z,16.60
2022-11-05T05:55:20.381Z,15.40
2022-11-05T05:58:57.498Z,15.50
2022-11-05T06:02:37.663Z,14.70
2022-11-05T06:06:16.658Z,14.70
2022-11-05T06:09:50.315Z,12.60
2022-11-05T06:13:28.366Z,14.40
2022-11-05T06:17:06.592Z,13.10
2022-11-05T06:20:51.611Z,26.30
2022-11-05T06:24:22.325Z,13.00
2022-11-05T06:27:58.589Z,14.00
2022-11-05T06:31:36.677Z,14.50
2022-11-05T06:35:13.319Z,12.20
2022-11-05T06:38:50.998Z,12.30
2022-11-05T06:42:39.322Z,10.50
2022-11-05T06:46:05.995Z,9.00
2022-11-05T06:49:44.656Z,12.80
2022-11-05T06:53:23.833Z,12.10
2022-11-05T06:57:03.605Z,11.60
2022-11-05T07:00:38.610Z,14.00
2022-11-05T07:04:22.487Z,10.50
2022-11-05T07:07:54.673Z,10.70
2022-11-05T07:11:33.915Z,15.30
2022-11-05T07:15:10.552Z,12.00
2022-11-05T07:18:46.632Z,11.70
2022-11-05T07:22:24.717Z,10.70
2022-11-05T07:25:59.964Z,9.50
2022-11-05T07:30:15.794Z,7.90
2022-11-05T07:33:48.106Z,9.10
2022-11-05T07:37:26.298Z,8.20
2022-11-05T07:41:08.276Z,12.80
2022-11-05T07:44:41.750Z,6.90
2022-11-05T07:48:24.714Z,6.80
2022-11-05T07:51:59.154Z,8.50
2022-11-05T07:55:38.261Z,7.70
2022-11-05T07:59:15.302Z,8.40
2022-11-05T08:03:07.102Z,6.70
2022-11-05T08:06:33.958Z,6.10
2022-11-05T08:10:07.570Z,6.90
2022-11-05T08:13:46.143Z,7.60
2022-11-05T08:17:22.115Z,10.00
2022-11-05T08:20:58.203Z,10.90
2022-11-05T08:24:34.058Z,10.10
2022-11-05T08:28:16.983Z,11.50
2022-11-05T08:31:50.706Z,11.50
2022-11-05T08:35:29.206Z,13.20
2022-11-05T08:39:10.646Z,11.40
2022-11-05T08:42:45.752Z,12.80
2022-11-05T08:46:25.174Z,12.30
2022-11-05T08:49:59.841Z,12.30
2022-11-05T08:53:38.611Z,11.00
2022-11-05T08:57:19.947Z,12.90
2022-11-05T09:00:56.078Z,13.10
2022-11-05T09:04:29.594Z,16.10
2022-11-05T09:08:11.804Z,17.20
2022-11-05T09:12:10.738Z,14.50
2022-11-05T09:15:18.112Z,14.30
2022-11-05T09:18:53.558Z,15.00
2022-11-05T09:22:53.785Z,13.80
2022-11-05T09:26:53.312Z,15.00
2022-11-05T09:30:53.886Z,16.70
2022-11-05T09:34:30.710Z,13.00
2022-11-05T09:38:55.391Z,14.00
2022-11-05T09:42:14.345Z,16.90
2022-11-05T09:45:49.765Z,14.90
2022-11-05T09:49:54.535Z,18.70
2022-11-05T09:53:55.327Z,15.80
2022-11-05T09:58:02.099Z,16.40
2022-11-05T10:02:12.269Z,14.40
2022-11-05T10:06:18.817Z,15.40
2022-11-05T10:10:48.708Z,15.10
2022-11-05T10:15:10.774Z,13.90
2022-11-05T10:19:16.646Z,16.10
2022-11-05T10:23:21.670Z,14.00
2022-11-05T10:27:36.472Z,12.60
2022-11-05T10:31:39.033Z,12.00
2022-11-05T10:35:48.504Z,9.50
2022-11-05T10:39:49.260Z,11.10
2022-11-05T10:43:58.317Z,4.30
2022-11-05T10:48:07.161Z,8.70
2022-11-05T10:52:37.220Z,7.00
2022-11-05T10:56:40.030Z,5.40
2022-11-05T11:00:40.057Z,3.70
2022-11-05T11:04:40.438Z,7.20
2022-11-05T11:08:40.209Z,7.20
2022-11-05T11:12:44.308Z,5.00
2022-11-05T11:16:51.620Z,5.80
2022-11-05T11:20:50.670Z,4.60
2022-11-05T11:24:54.121Z,5.40
2022-11-05T11:29:05.964Z,2.00
2022-11-05T11:33:13.127Z,4.40
2022-11-05T11:36:47.635Z,4.30
2022-11-05T11:40:47.500Z,2.10
2022-11-05T11:44:49.258Z,3.40
2022-11-05T11:48:50.104Z,3.30
2022-11-05T11:52:49.649Z,3.30
2022-11-05T11:56:49.355Z,1.60
2022-11-05T12:01:02.552Z,6.40
2022-11-05T12:05:02.046Z,6.00
2022-11-05T12:09:29.476Z,4.40
2022-11-05T12:14:25.922Z,5.20
2022-11-05T12:18:57.900Z,4.00
2022-11-05T12:23:54.243Z,4.90
2022-11-05T12:27:06.098Z,6.50
2022-11-05T12:31:36.336Z,6.10
2022-11-05T12:36:03.975Z,4.50
2022-11-05T12:40:42.234Z,6.60
2022-11-05T12:44:52.051Z,6.40
2022-11-05T12:48:57.970Z,11.40
2022-11-05T12:53:14.374Z,4.60
2022-11-05T12:57:17.430Z,6.30
2022-11-05T13:01:27.474Z,8.20
2022-11-05T13:06:08.859Z,7.40
2022-11-05T13:10:27.485Z,10.70
2022-11-05T13:14:29.834Z,10.50
2022-11-05T13:19:00.523Z,8.10
2022-11-05T13:23:38.106Z,12.40
2022-11-05T13:28:04.308Z,13.10
2022-11-05T13:32:27.076Z,10.30
2022-11-05T13:36:51.840Z,7.40
2022-11-05T13:41:23.805Z,10.50
2022-11-05T13:45:30.525Z,9.80
2022-11-05T13:50:11.268Z,12.70
2022-11-05T13:54:14.726Z,9.90
2022-11-05T13:58:47.385Z,10.00
2022-11-05T14:02:53.780Z,9.70
2022-11-05T14:06:55.389Z,8.00
2022-11-05T14:11:33.799Z,8.10
2022-11-05T14:15:33.900Z,12.60
2022-11-05T14:20:10.037Z,11.90
2022-11-05T14:24:23.358Z,11.60
2022-11-05T14:28:35.680Z,13.00
2022-11-05T14:32:46.221Z,9.60
2022-11-05T14:37:03.727Z,10.60
2022-11-05T14:41:04.151Z,5.30
2022-11-05T14:45:27.347Z,12.20
2022-11-05T14:49:31.839Z,13.20
2022-11-05T14:53:34.399Z,11.30
2022-11-05T14:57:55.491Z,8.80
2022-11-05T15:02:21.016Z,8.30
2022-11-05T15:05:39.807Z,10.70
2022-11-05T15:09:45.450Z,10.80
2022-11-05T15:14:01.687Z,11.80
2022-11-05T15:18:06.268Z,11.70
2022-11-05T15:22:12.964Z,12.70
2022-11-05T15:26:38.482Z,4.60
2022-11-05T15:30:38.585Z,10.70
2022-11-05T15:34:38.985Z,6.00
2022-11-05T15:38:56.671Z,11.90
2022-11-05T15:43:20.475Z,12.60
2022-11-05T15:47:28.227Z,9.30
2022-11-05T15:51:27.980Z,9.20
2022-11-05T15:55:55.453Z,9.10
2022-11-05T15:59:32.857Z,12.90
2022-11-05T16:03:35.996Z,11.30
2022-11-05T16:07:36.229Z,13.90
2022-11-05T16:11:35.939Z,15.40
2022-11-05T16:15:36.502Z,12.20
2022-11-05T16:19:40.910Z,11.90
2022-11-05T16:23:53.484Z,15.30
2022-11-05T16:27:54.374Z,12.80
2022-11-05T16:32:02.460Z,10.20
2022-11-05T16:35:46.312Z,9.00
2022-11-05T16:39:46.440Z,10.10
2022-11-05T16:43:55.992Z,19.40
2022-11-05T16:47:56.120Z,9.30
2022-11-05T16:51:55.825Z,13.90
2022-11-05T16:56:03.096Z,12.90
2022-11-05T16:59:34.182Z,14.40
2022-11-05T17:03:33.772Z,9.90
2022-11-05T17:07:53.254Z,12.80
2022-11-05T17:11:21.750Z,17.40
2022-11-05T17:15:39.584Z,12.90
2022-11-05T17:19:42.775Z,10.60
2022-11-05T17:23:42.737Z,17.30
2022-11-05T17:27:42.111Z,21.60
2022-11-05T17:31:42.109Z,8.50
2022-11-05T17:35:42.628Z,5.10
2022-11-05T17:39:43.466Z,9.50
2022-11-05T17:43:45.569Z,9.10
2022-11-05T17:47:21.774Z,11.10
2022-11-05T18:02:53.078Z,25.90
2022-11-05T18:06:01.837Z,18.00
2022-11-05T18:10:00.866Z,21.20
2022-11-05T18:14:00.125Z,20.50
2022-11-05T18:24:35.690Z,19.00
2022-11-05T18:28:39.724Z,20.50
2022-11-05T18:32:44.216Z,17.10
2022-11-05T18:36:21.859Z,20.80
2022-11-05T18:40:20.976Z,17.40
2022-11-05T18:44:38.897Z,18.90
2022-11-05T18:48:38.395Z,14.80
2022-11-05T18:52:38.166Z,15.70
2022-11-05T18:56:37.573Z,16.60
2022-11-05T19:00:39.809Z,13.20
2022-11-05T19:04:39.882Z,12.70
2022-11-05T19:08:39.736Z,11.90
2022-11-05T19:12:39.079Z,11.90
2022-11-05T19:16:38.817Z,14.70
2022-11-05T19:20:39.021Z,15.60
2022-11-05T19:24:52.504Z,16.50
2022-11-05T19:28:52.964Z,15.40
2022-11-05T19:32:52.763Z,13.70
2022-11-05T19:36:52.837Z,18.20
2022-11-05T19:40:52.943Z,14.40
2022-11-05T19:44:51.942Z,16.40
2022-11-05T19:48:52.988Z,15.80
2022-11-05T19:52:54.500Z,13.50
2022-11-05T19:56:53.416Z,15.80
2022-11-05T20:00:55.804Z,16.50
2022-11-05T20:04:54.764Z,15.40
2022-11-05T20:13:49.259Z,18.10
2022-11-05T20:17:08.179Z,15.50
2022-11-05T20:21:09.326Z,19.60
2022-11-05T20:25:09.391Z,14.10
2022-11-05T20:29:23.497Z,15.60
2022-11-05T20:33:22.282Z,16.50
2022-11-05T20:37:21.037Z,13.80
